createdAt,value
2022-12-03T00:10:03.567Z,68
2022-12-03T00:40:04.340Z,67
2022-12-03T01:09:58.947Z,67
2022-12-03T01:39:54.419Z,65
2022-12-03T02:09:56.014Z,63
2022-12-03T02:39:48.302Z,65
2022-12-03T03:09:48.221Z,64
2022-12-03T03:39:42.436Z,60
2022-12-03T04:09:41.313Z,59
2022-12-03T04:39:36.564Z,57
2022-12-03T05:09:35.287Z,56
2022-12-03T05:39:35.133Z,53
2022-12-03T06:09:31.383Z,55
2022-12-03T06:39:31.967Z,59
2022-12-03T07:09:24.887Z,59
2022-12-03T07:39:26.558Z,54
2022-12-03T08:09:22.587Z,57
2022-12-03T08:39:22.893Z,57
2022-12-03T09:09:23.341Z,65
2022-12-03T09:39:19.228Z,63
2022-12-03T10:09:17.854Z,63
2022-12-03T10:39:22.627Z,64
2022-12-03T11:09:17.169Z,67
2022-12-03T11:39:21.494Z,68
2022-12-03T12:09:22.533Z,73
2022-12-03T12:39:26.181Z,74
2022-12-03T13:09:27.562Z,73
2022-12-03T13:39:28.290Z,75
2022-12-03T14:09:33.724Z,74
2022-12-03T14:39:27.975Z,79
2022-12-03T15:09:24.474Z,75
2022-12-03T15:39:22.016Z,75
2022-12-03T16:09:22.930Z,77
2022-12-03T16:39:18.569Z,88
2022-12-03T17:09:15.091Z,79
2022-12-03T17:39:13.753Z,78
2022-12-03T18:09:12.099Z,79
2022-12-03T18:39:12.471Z,79
2022-12-03T19:09:15.481Z,78
2022-12-03T19:39:10.144Z,77
2022-12-03T20:09:04.600Z,74
2022-12-03T20:39:01.798Z,77
2022-12-03T21:09:05.210Z,78
2022-12-03T21:39:01.822Z,76
2022-12-03T22:08:55.527Z,76
2022-12-03T22:38:53.643Z,74
2022-12-03T23:08:48.124Z,74
2022-12-03T23:38:49.311Z,71
